Time;durP1;ratioP1;P1;durP2;ratioP2;P2;SDS_P1;SDS_P2;PMS_P1;PMS_P2;Temp;Humidity;BMP_temperature;BMP_pressure;BME280_temperature;BME280_humidity;BME280_pressure;Samples;Min_cycle;Max_cycle;Signal;HPM_P1;HPM_P2
2022/05/23 00:02:24;;;;;;;;;4.00;4.00;;;;;21.78;52.84;100165.06;5067249;27;45517;-84
2022/05/23 00:04:50;;;;;;;;;6.00;6.00;;;;;21.58;51.72;100140.75;5057668;28;45261;-84
2022/05/23 00:07:30;;;;;;;;;6.67;5.00;;;;;21.97;51.86;100193.91;5067448;28;45259;-84
2022/05/23 00:09:56;;;;;;;;;5.33;4.00;;;;;21.97;52.13;100194.75;5075103;27;46128;-84
2022/05/23 00:12:22;;;;;;;;;6.00;4.00;;;;;21.80;52.21;100176.59;5070144;27;45460;-84
2022/05/23 00:14:48;;;;;;;;;6.67;4.67;;;;;21.89;52.34;100206.38;5066850;27;45329;-84
2022/05/23 00:17:13;;;;;;;;;6.67;5.00;;;;;21.72;52.10;100166.50;5069682;27;45548;-84
2022/05/23 00:19:39;;;;;;;;;4.00;4.00;;;;;22.03;51.70;100205.00;5067288;28;47225;-84
2022/05/23 00:22:05;;;;;;;;;4.33;3.33;;;;;22.03;52.03;100210.41;5060333;28;45325;-84
2022/05/23 00:24:30;;;;;;;;;6.00;6.00;;;;;21.92;52.34;100181.63;5061625;28;45479;-84
2022/05/23 00:26:56;;;;;;;;;5.33;5.33;;;;;21.81;52.38;100151.16;5066940;28;45613;-84
2022/05/23 00:29:21;;;;;;;;;4.67;4.67;;;;;21.69;52.64;100143.25;5064232;28;45970;-84
2022/05/23 00:37:18;;;;;;;;;3.67;3.33;;;;;21.98;51.69;100166.59;5056847;28;45423;-85
2022/05/23 00:39:43;;;;;;;;;6.00;6.00;;;;;21.79;52.40;100126.91;5067722;28;45350;-85
2022/05/23 00:44:58;;;;;;;;;3.33;3.33;;;;;21.98;50.92;100112.31;5065891;28;45425;-84
2022/05/23 00:47:25;;;;;;;;;6.67;5.67;;;;;22.12;51.52;100144.34;5061540;28;45483;-84
2022/05/23 00:49:52;;;;;;;;;6.67;4.67;;;;;22.12;51.48;100140.75;5067332;28;45503;-84
2022/05/23 00:52:27;;;;;;;;;3.33;3.33;;;;;21.90;50.71;100090.53;5058990;28;45284;-85
2022/05/23 00:54:56;;;;;;;;;5.00;3.00;;;;;21.96;50.54;100095.38;5064621;28;45331;-85
2022/05/23 00:57:27;;;;;;;;;3.00;3.00;;;;;22.01;50.67;100106.59;5067222;28;45523;-84
2022/05/23 00:59:52;;;;;;;;;4.33;4.33;;;;;21.95;51.95;100101.78;5065620;27;45501;-84
2022/05/23 01:02:19;;;;;;;;;2.00;2.00;;;;;21.95;51.15;100096.34;5070356;28;45385;-85
2022/05/23 01:04:44;;;;;;;;;3.67;3.67;;;;;22.04;51.47;100105.41;5068632;27;45612;-85
2022/05/23 01:07:10;;;;;;;;;4.67;3.00;;;;;21.96;51.52;100102.63;5065156;28;45583;-85
2022/05/23 01:09:36;;;;;;;;;3.00;2.33;;;;;21.95;50.84;100080.06;5065369;27;46239;-85
2022/05/23 01:12:02;;;;;;;;;4.67;3.00;;;;;22.08;51.39;100096.81;5071755;28;45328;-85
2022/05/23 01:14:54;;;;;;;;;5.00;5.00;;;;;22.05;51.62;100093.53;5088583;27;45402;-85
2022/05/23 01:17:22;;;;;;;;;4.67;3.00;;;;;21.92;52.16;100061.41;5064646;28;45602;-85
2022/05/23 01:19:48;;;;;;;;;3.67;3.00;;;;;21.70;50.84;100008.47;5064078;28;45450;-85
2022/05/23 01:22:31;;;;;;;;;5.67;3.00;;;;;22.06;51.45;100070.84;5071413;28;45414;-85
2022/05/23 01:25:14;;;;;;;;;4.00;4.00;;;;;21.74;51.71;100015.28;5063734;28;45392;-85
2022/05/23 01:27:40;;;;;;;;;3.00;3.00;;;;;21.93;52.17;100054.94;5072876;27;45415;-85
2022/05/23 01:30:06;;;;;;;;;5.00;4.00;;;;;21.83;52.12;100027.06;5076660;27;45497;-85
2022/05/23 01:32:32;;;;;;;;;1.67;1.00;;;;;21.81;51.91;100013.66;5073700;28;45447;-85
2022/05/23 01:34:57;;;;;;;;;5.00;3.33;;;;;21.95;52.04;100042.09;5067567;28;45452;-84
2022/05/23 01:37:24;;;;;;;;;4.00;4.00;;;;;21.90;51.89;100030.84;5070828;28;45614;-84
2022/05/23 01:39:49;;;;;;;;;5.00;3.00;;;;;21.70;51.72;99975.91;5068659;27;45498;-84
2022/05/23 01:42:15;;;;;;;;;2.00;2.00;;;;;21.87;51.66;100004.91;5069944;28;45375;-84
2022/05/23 01:44:41;;;;;;;;;2.00;2.00;;;;;21.66;51.95;99972.69;5078640;27;45359;-84
2022/05/23 01:47:12;;;;;;;;;5.00;3.00;;;;;21.83;52.00;100006.22;5078243;27;45814;-84
2022/05/23 01:49:39;;;;;;;;;7.33;4.67;;;;;21.82;51.79;99992.78;5066016;28;46688;-84
2022/05/23 01:52:07;;;;;;;;;4.33;2.67;;;;;21.80;53.27;99984.00;5070610;28;45399;-84
2022/05/23 01:54:33;;;;;;;;;6.67;5.00;;;;;21.78;52.42;99976.00;5059368;28;45457;-83
2022/05/23 01:56:59;;;;;;;;;2.00;2.00;;;;;21.75;52.44;99975.44;5069350;28;45444;-84
2022/05/23 02:02:09;;;;;;;;;6.33;4.33;;;;;21.52;52.59;99935.28;5069127;28;45454;-84
2022/05/23 02:04:34;;;;;;;;;6.00;4.00;;;;;21.68;52.71;99967.09;5059203;28;45346;-84
2022/05/23 02:07:00;;;;;;;;;4.00;4.00;;;;;21.47;52.97;99940.34;5062449;28;45533;-84
2022/05/23 02:09:28;;;;;;;;;6.00;5.00;;;;;21.45;52.57;99935.06;5069979;28;45895;-83
2022/05/23 02:11:53;;;;;;;;;5.00;4.00;;;;;21.67;52.98;99968.94;5064725;28;45377;-84
2022/05/23 02:14:19;;;;;;;;;7.00;5.00;;;;;21.71;52.29;99966.78;5077949;28;45492;-83
2022/05/23 02:16:45;;;;;;;;;4.00;4.00;;;;;21.51;52.09;99949.84;5072797;28;45370;-83
2022/05/23 02:19:10;;;;;;;;;8.00;8.00;;;;;21.63;52.44;99969.44;5072178;28;45435;-84
2022/05/23 02:21:35;;;;;;;;;6.00;6.00;;;;;21.41;52.75;99944.50;5076850;28;45457;-84
2022/05/23 02:24:03;;;;;;;;;4.67;3.67;;;;;21.65;51.99;99984.53;5072308;28;45372;-84
2022/05/23 02:26:32;;;;;;;;;5.00;5.00;;;;;21.40;52.66;99947.38;5087314;27;45515;-83
2022/05/23 02:28:58;;;;;;;;;6.33;6.33;;;;;21.63;52.63;99994.72;5072451;28;46260;-83
2022/05/23 02:31:25;;;;;;;;;7.33;6.00;;;;;21.38;52.80;99965.66;5060770;28;45373;-83
2022/05/23 02:33:51;;;;;;;;;5.67;4.00;;;;;21.57;52.34;100003.47;5071544;28;45254;-83
2022/05/23 02:36:16;;;;;;;;;3.67;3.67;;;;;21.50;52.69;99992.38;5061732;27;45836;-83
2022/05/23 02:38:41;;;;;;;;;8.67;4.33;;;;;21.44;53.03;99984.84;5074212;28;51101;-83
2022/05/23 02:41:07;;;;;;;;;7.00;5.00;;;;;21.28;53.14;99963.88;5056984;28;45555;-83
2022/05/23 02:43:32;;;;;;;;;6.67;6.00;;;;;21.35;53.44;99983.06;5075977;28;45365;-83
2022/05/23 02:45:57;;;;;;;;;5.67;5.67;;;;;21.08;53.09;99936.06;5077155;27;45605;-83
2022/05/23 02:48:23;;;;;;;;;6.67;6.67;;;;;21.23;53.07;99966.16;5069553;28;59123;-83
2022/05/23 02:50:49;;;;;;;;;7.67;7.00;;;;;21.16;53.70;99967.81;5067578;28;51071;-83
2022/05/23 02:53:14;;;;;;;;;7.00;6.00;;;;;21.29;53.39;99994.53;5066015;28;45680;-83
2022/05/23 02:55:39;;;;;;;;;6.00;6.00;;;;;21.26;53.87;100000.28;5057407;28;45945;-83
2022/05/23 02:58:07;;;;;;;;;6.33;6.33;;;;;21.22;54.01;99999.72;5066203;28;45409;-83
2022/05/23 03:00:33;;;;;;;;;6.00;6.00;;;;;21.18;53.83;99998.31;5069211;28;45634;-83
2022/05/23 03:03:01;;;;;;;;;5.00;5.00;;;;;21.08;53.74;99984.84;5070439;28;45522;-83
2022/05/23 03:05:32;;;;;;;;;5.00;5.00;;;;;21.11;53.56;99980.13;5066150;27;45482;-83
2022/05/23 03:07:57;;;;;;;;;6.33;6.00;;;;;21.06;54.24;99977.88;5062068;28;46708;-83
2022/05/23 03:10:23;;;;;;;;;6.00;6.00;;;;;20.98;53.81;99972.38;5069234;27;45328;-82
2022/05/23 03:12:49;;;;;;;;;5.33;5.33;;;;;21.08;53.82;99992.13;5074749;28;45445;-83
2022/05/23 03:15:14;;;;;;;;;6.00;6.00;;;;;21.16;54.05;99994.06;5067230;28;45411;-83
2022/05/23 03:17:40;;;;;;;;;5.00;5.00;;;;;20.96;54.56;99968.97;5060708;28;45579;-83
2022/05/23 03:20:07;;;;;;;;;7.33;7.00;;;;;21.11;54.74;99990.97;5072943;27;45416;-82
2022/05/23 03:28:01;;;;;;;;;7.00;4.00;;;;;20.99;54.71;99979.50;5061918;28;45700;-83
2022/05/23 03:30:28;;;;;;;;;7.00;6.00;;;;;20.98;55.05;99948.84;5072776;28;45415;-83
2022/05/23 03:32:54;;;;;;;;;5.67;5.67;;;;;21.14;54.81;99959.00;5067562;27;45763;-83
2022/05/23 03:35:20;;;;;;;;;6.00;6.00;;;;;21.15;54.26;99936.28;5071115;27;45362;-83
2022/05/23 03:37:45;;;;;;;;;6.00;4.67;;;;;21.19;54.09;99920.56;5072232;27;46680;-83
2022/05/23 03:40:11;;;;;;;;;7.33;6.00;;;;;21.13;53.96;99907.66;5057081;28;45334;-83
2022/05/23 03:42:37;;;;;;;;;5.33;4.33;;;;;21.12;54.52;99928.50;5056841;28;45415;-83
2022/05/23 03:45:03;;;;;;;;;6.00;6.00;;;;;21.08;53.88;99927.09;5063322;28;45504;-83
2022/05/23 03:47:28;;;;;;;;;5.33;5.33;;;;;20.92;54.03;99907.97;5056633;28;47352;-83
2022/05/23 03:49:54;;;;;;;;;6.00;6.00;;;;;21.13;54.70;99948.31;5063676;28;45513;-83
2022/05/23 03:52:20;;;;;;;;;5.00;5.00;;;;;21.15;54.46;99939.00;5061810;27;45408;-83
2022/05/23 03:54:46;;;;;;;;;10.00;7.00;;;;;21.03;54.88;99913.16;5066798;28;45519;-83
2022/05/23 03:57:11;;;;;;;;;8.00;7.00;;;;;20.78;55.42;99863.31;5067124;28;47247;-82
2022/05/23 03:59:37;;;;;;;;;9.67;9.67;;;;;21.07;55.17;99920.81;5075238;28;45440;-82
2022/05/23 04:02:02;;;;;;;;;9.00;7.00;;;;;21.08;54.53;99927.09;5059260;28;45349;-84
2022/05/23 04:04:29;;;;;;;;;6.00;5.33;;;;;20.91;54.61;99904.41;5069201;28;45438;-84
2022/05/23 04:07:03;;;;;;;;;7.00;7.00;;;;;21.10;54.40;99935.91;5074281;27;46217;-83
2022/05/23 04:09:29;;;;;;;;;9.67;8.67;;;;;21.10;54.97;99937.78;5061847;28;45510;-84
2022/05/23 04:11:56;;;;;;;;;7.00;7.00;;;;;21.00;54.83;99908.91;5073321;27;45255;-84
2022/05/23 04:14:22;;;;;;;;;7.33;7.33;;;;;20.84;54.70;99876.25;5062405;28;45319;-83
2022/05/23 04:16:47;;;;;;;;;7.67;7.67;;;;;21.05;55.17;99909.28;5090631;27;46186;-84
2022/05/23 04:19:13;;;;;;;;;9.67;8.00;;;;;21.02;54.93;99896.03;5076121;27;45479;-84
2022/05/23 04:21:40;;;;;;;;;7.33;7.00;;;;;21.03;54.87;99907.75;5067135;28;45617;-83
2022/05/23 04:24:05;;;;;;;;;7.00;7.00;;;;;21.02;55.25;99890.59;5069667;28;45622;-84
2022/05/23 04:26:31;;;;;;;;;5.00;5.00;;;;;20.85;54.85;99859.81;5063385;28;48449;-84
2022/05/23 04:28:56;;;;;;;;;7.00;7.00;;;;;20.90;55.01;99845.81;5076671;27;45398;-83
2022/05/23 04:31:21;;;;;;;;;10.00;8.33;;;;;20.98;56.56;99839.63;5069626;28;45559;-83
2022/05/23 04:36:30;;;;;;;;;14.67;10.67;;;;;20.94;59.35;99830.09;5060281;28;45853;-84
2022/05/23 04:38:56;;;;;;;;;14.67;13.67;;;;;20.87;60.11;99822.59;5066597;27;45540;-83
2022/05/23 04:41:21;;;;;;;;;14.00;12.67;;;;;20.84;60.52;99841.03;5064683;28;45762;-84
2022/05/23 04:43:46;;;;;;;;;12.00;12.00;;;;;20.83;58.82;99844.72;5055925;28;45647;-84
2022/05/23 04:46:12;;;;;;;;;15.00;12.00;;;;;20.61;59.10;99808.16;5057892;28;48108;-83
2022/05/23 04:51:21;;;;;;;;;18.33;13.33;;;;;20.92;59.90;99851.06;5075622;28;45297;-83
2022/05/23 04:53:53;;;;;;;;;15.00;14.33;;;;;20.84;60.09;99839.16;5071078;27;45563;-84
2022/05/23 04:56:18;;;;;;;;;16.33;13.33;;;;;20.90;60.63;99864.78;5068879;27;45498;-85
2022/05/23 04:58:44;;;;;;;;;12.33;12.33;;;;;20.90;60.05;99863.91;5069140;28;45513;-85
2022/05/23 05:01:09;;;;;;;;;12.67;12.33;;;;;20.77;59.75;99829.13;5065085;28;45531;-85
2022/05/23 05:03:34;;;;;;;;;9.00;8.67;;;;;20.91;60.28;99854.78;5064800;28;45600;-85
2022/05/23 05:06:00;;;;;;;;;10.67;9.67;;;;;20.90;61.04;99853.09;5075438;28;45986;-85
2022/05/23 05:08:26;;;;;;;;;11.33;9.67;;;;;20.93;60.29;99842.81;5071342;28;52820;-85
2022/05/23 05:10:51;;;;;;;;;9.33;8.33;;;;;20.79;60.80;99797.28;5073364;28;45581;-85
2022/05/23 05:13:16;;;;;;;;;7.00;7.00;;;;;20.83;61.60;99813.06;5065101;28;45872;-85
2022/05/23 05:15:42;;;;;;;;;8.67;8.00;;;;;20.90;62.05;99829.56;5058413;28;47363;-81
2022/05/23 05:18:07;;;;;;;;;10.67;10.67;;;;;20.76;61.89;99803.88;5073038;28;45718;-83
2022/05/23 05:20:32;;;;;;;;;10.67;9.00;;;;;20.83;61.38;99791.41;5078668;28;45521;-82
2022/05/23 05:22:58;;;;;;;;;7.00;7.00;;;;;20.81;61.70;99796.16;5068686;28;45599;-81
2022/05/23 05:25:24;;;;;;;;;6.00;5.67;;;;;20.79;61.87;99790.03;5059273;28;45643;-82
2022/05/23 05:27:49;;;;;;;;;7.00;7.00;;;;;20.87;61.53;99819.03;5072748;28;45401;-81
2022/05/23 05:30:19;;;;;;;;;7.67;5.33;;;;;20.78;60.84;99809.13;5076003;27;45329;-81
2022/05/23 05:32:51;;;;;;;;;7.33;6.33;;;;;20.81;62.14;99795.28;5061163;28;45495;-80
2022/05/23 05:35:29;;;;;;;;;5.00;5.00;;;;;20.71;62.02;99754.75;5074141;28;45769;-81
2022/05/23 05:38:09;;;;;;;;;5.67;5.67;;;;;20.91;61.75;99768.09;5063085;28;45578;-81
2022/05/23 05:40:35;;;;;;;;;5.00;5.00;;;;;20.80;61.25;99766.50;5066599;27;45218;-81
2022/05/23 05:43:07;;;;;;;;;8.00;7.00;;;;;20.53;61.63;99751.16;5078839;27;45578;-81
2022/05/23 05:45:43;;;;;;;;;6.33;6.00;;;;;20.53;62.55;99772.81;5068337;27;45316;-81
2022/05/23 05:48:09;;;;;;;;;8.00;7.00;;;;;20.63;62.97;99812.41;5077793;28;45548;-81
2022/05/23 05:50:38;;;;;;;;;24.33;23.00;;;;;20.59;63.18;99813.72;5073005;28;45496;-80
2022/05/23 05:53:09;;;;;;;;;9.00;8.00;;;;;20.54;62.74;99812.44;5059459;28;45491;-82
2022/05/23 05:55:36;;;;;;;;;7.67;7.67;;;;;20.57;63.01;99818.41;5058409;28;46182;-82
2022/05/23 05:58:01;;;;;;;;;7.33;7.33;;;;;20.53;62.31;99813.44;5057463;28;45977;-81
2022/05/23 06:00:27;;;;;;;;;8.67;7.33;;;;;20.53;62.66;99800.75;5059365;28;45613;-83
2022/05/23 06:02:52;;;;;;;;;9.00;7.67;;;;;20.28;62.71;99742.84;5062594;28;45537;-82
2022/05/23 06:05:18;;;;;;;;;8.67;8.67;;;;;20.68;62.67;99802.97;5075893;28;48060;-82
2022/05/23 06:13:11;;;;;;;;;9.00;7.67;;;;;20.75;62.55;99794.06;5074292;28;45533;-82
2022/05/23 06:15:36;;;;;;;;;9.33;9.33;;;;;20.74;62.99;99786.91;5065185;28;47488;-83
2022/05/23 06:18:02;;;;;;;;;6.67;6.67;;;;;20.84;62.83;99776.03;5065960;28;47589;-82
2022/05/23 06:20:27;;;;;;;;;7.00;7.00;;;;;21.07;62.38;99822.41;5068017;28;45463;-82
2022/05/23 06:22:53;;;;;;;;;9.00;6.00;;;;;21.10;62.60;99827.53;5068217;28;45332;-81
2022/05/23 06:25:19;;;;;;;;;10.00;6.00;;;;;20.97;62.33;99803.53;5068622;27;46350;-80
2022/05/23 06:27:44;;;;;;;;;5.67;5.67;;;;;21.00;62.58;99796.94;5063979;28;45407;-81
2022/05/23 06:30:13;;;;;;;;;7.33;6.00;;;;;21.13;62.29;99804.69;5065735;28;52572;-81
2022/05/23 06:32:38;;;;;;;;;6.00;6.00;;;;;21.09;62.62;99785.16;5065547;27;45487;-81
2022/05/23 06:35:08;;;;;;;;;5.67;5.67;;;;;21.06;62.69;99780.06;5070350;28;46421;-84
2022/05/23 06:37:38;;;;;;;;;5.67;5.67;;;;;20.97;62.40;99760.19;5071183;27;45594;-81
2022/05/23 06:40:06;;;;;;;;;9.00;6.67;;;;;21.04;62.10;99760.41;5068786;28;45569;-81
2022/05/23 06:42:32;;;;;;;;;5.00;5.00;;;;;21.04;62.39;99766.66;5060038;28;45511;-82
2022/05/23 06:44:59;;;;;;;;;8.00;4.33;;;;;21.17;61.93;99776.25;5069054;27;46171;-82
2022/05/23 06:47:24;;;;;;;;;5.67;5.67;;;;;21.20;62.55;99748.84;5065716;28;45531;-81
2022/05/23 06:49:49;;;;;;;;;6.00;4.67;;;;;21.16;62.18;99721.19;5065862;28;45434;-82
2022/05/23 06:52:15;;;;;;;;;5.00;5.00;;;;;21.28;61.61;99735.31;5071682;28;45359;-82
2022/05/23 06:54:41;;;;;;;;;7.67;5.00;;;;;21.35;61.59;99741.78;5065422;27;45483;-81
2022/05/23 06:57:06;;;;;;;;;6.00;5.00;;;;;21.49;62.15;99759.34;5069628;28;45390;-82
2022/05/23 06:59:32;;;;;;;;;16.00;16.00;;;;;21.54;62.11;99767.00;5064935;28;45772;-81
2022/05/23 07:01:58;;;;;;;;;4.67;4.67;;;;;21.58;61.97;99760.25;5071652;28;45594;-80
2022/05/23 07:04:23;;;;;;;;;5.67;5.67;;;;;21.54;62.14;99740.75;5074100;27;45472;-81
2022/05/23 07:12:27;;;;;;;;;7.00;7.00;;;;;21.60;64.52;99733.81;5071783;28;45467;-80
2022/05/23 07:14:56;;;;;;;;;4.00;4.00;;;;;21.74;63.13;99760.31;5062142;28;46278;-82
2022/05/23 07:17:22;;;;;;;;;8.33;6.00;;;;;21.75;63.92;99758.44;5069271;28;45408;-81
2022/05/23 07:19:48;;;;;;;;;6.33;6.33;;;;;21.64;64.41;99738.75;5070641;28;45986;-81
2022/05/23 07:22:14;;;;;;;;;5.00;5.00;;;;;21.76;63.14;99754.75;5066872;28;45446;-82
2022/05/23 07:24:39;;;;;;;;;6.00;5.00;;;;;21.74;63.36;99754.03;5075107;28;45992;-80
2022/05/23 07:27:05;;;;;;;;;6.00;6.00;;;;;21.70;63.81;99751.66;5069635;27;45338;-81
2022/05/23 07:29:31;;;;;;;;;3.67;3.67;;;;;21.60;63.04;99745.50;5071416;28;45344;-81
2022/05/23 07:31:57;;;;;;;;;6.00;6.00;;;;;21.71;64.00;99768.78;5066050;28;45394;-80
2022/05/23 07:34:23;;;;;;;;;5.33;5.33;;;;;21.71;63.03;99757.94;5070740;28;45973;-79
2022/05/23 07:36:49;;;;;;;;;5.00;5.00;;;;;21.70;63.23;99783.34;5070022;28;45448;-81
2022/05/23 07:39:15;;;;;;;;;5.67;5.33;;;;;21.63;64.18;99791.31;5066228;28;45392;-81
2022/05/23 07:41:42;;;;;;;;;9.00;5.00;;;;;21.44;63.84;99759.00;5087926;27;45555;-81
2022/05/23 07:44:09;;;;;;;;;5.33;5.33;;;;;21.49;63.67;99760.22;5063007;27;46138;-78
2022/05/23 07:46:35;;;;;;;;;6.00;4.00;;;;;21.47;63.79;99775.78;5066931;28;45581;-80
2022/05/23 07:49:01;;;;;;;;;5.67;4.33;;;;;21.38;63.54;99781.31;5071928;28;45890;-81
2022/05/23 07:51:30;;;;;;;;;4.67;4.67;;;;;21.37;64.06;99766.03;5063876;27;45459;-81
2022/05/23 08:02:10;;;;;;;;;8.67;6.00;;;;;21.63;65.70;99657.53;5068436;28;45358;-80
2022/05/23 08:04:36;;;;;;;;;7.33;6.00;;;;;21.62;65.17;99672.97;5069678;27;46281;-80
2022/05/23 08:07:02;;;;;;;;;7.00;7.00;;;;;21.83;64.96;99704.25;5064510;28;45550;-80
2022/05/23 08:09:27;;;;;;;;;7.00;5.67;;;;;21.85;65.02;99711.19;5068385;28;45451;-80
2022/05/23 08:11:53;;;;;;;;;5.00;5.00;;;;;21.77;64.72;99707.59;5068533;28;45436;-80
2022/05/23 08:14:19;;;;;;;;;19.67;18.33;;;;;21.85;64.08;99724.75;5065941;28;45549;-80
2022/05/23 08:16:44;;;;;;;;;20.67;18.33;;;;;21.87;63.67;99728.16;5064384;28;45444;-80
2022/05/23 08:19:10;;;;;;;;;18.33;17.00;;;;;21.88;64.24;99729.00;5058864;28;45415;-80
2022/05/23 08:21:47;;;;;;;;;7.33;7.00;;;;;21.64;64.42;99694.53;5067870;27;45370;-79
2022/05/23 08:24:13;;;;;;;;;7.67;5.00;;;;;21.76;65.89;99720.31;5066008;27;46135;-79
2022/05/23 08:26:39;;;;;;;;;9.00;7.33;;;;;21.73;65.90;99717.06;5060207;27;45479;-79
2022/05/23 08:29:04;;;;;;;;;7.00;6.33;;;;;21.80;67.21;99726.28;5062566;28;45356;-79
2022/05/23 08:31:30;;;;;;;;;6.33;5.00;;;;;21.67;67.43;99716.72;5066666;28;45425;-79
2022/05/23 08:33:55;;;;;;;;;5.00;5.00;;;;;21.74;67.54;99737.78;5068893;28;46708;-79
2022/05/23 08:36:20;;;;;;;;;5.33;5.00;;;;;21.63;67.09;99733.47;5064325;28;45427;-79
2022/05/23 08:38:46;;;;;;;;;7.33;6.33;;;;;21.57;67.75;99742.28;5063484;28;46524;-79
2022/05/23 08:41:21;;;;;;;;;8.33;7.00;;;;;21.58;67.07;99762.97;5077454;27;45557;-79
2022/05/23 08:44:13;;;;;;;;;6.00;6.00;;;;;21.53;66.85;99762.59;5062919;28;46564;-79
2022/05/23 08:47:01;;;;;;;;;6.00;5.33;;;;;21.48;67.19;99753.06;5072273;28;46147;-79
2022/05/23 08:49:36;;;;;;;;;7.33;7.33;;;;;21.52;68.09;99750.91;5062878;28;45533;-79
2022/05/23 08:52:07;;;;;;;;;4.67;4.67;;;;;21.46;68.16;99733.41;5069919;27;45545;-79
2022/05/23 08:54:46;;;;;;;;;7.00;7.00;;;;;21.59;67.91;99749.25;5071964;28;45415;-79
2022/05/23 08:57:27;;;;;;;;;6.00;6.00;;;;;21.58;68.25;99763.78;5070454;27;45811;-79
2022/05/23 08:59:57;;;;;;;;;8.00;7.33;;;;;21.46;68.17;99743.41;5067240;27;45378;-79
2022/05/23 09:02:36;;;;;;;;;7.00;7.00;;;;;21.43;68.24;99736.47;5069065;27;45467;-79
2022/05/23 09:05:15;;;;;;;;;7.00;7.00;;;;;21.60;68.25;99760.94;5069983;28;46588;-79
2022/05/23 09:07:48;;;;;;;;;9.00;8.00;;;;;21.47;68.13;99734.28;5072645;27;46410;-79
2022/05/23 09:10:24;;;;;;;;;9.67;9.67;;;;;21.63;68.57;99768.75;5068707;28;45488;-79
2022/05/23 09:12:52;;;;;;;;;9.00;8.67;;;;;21.53;68.19;99749.88;5059204;28;45401;-79
2022/05/23 09:15:17;;;;;;;;;9.00;9.00;;;;;21.60;67.60;99763.66;5075040;28;46125;-79
2022/05/23 09:17:50;;;;;;;;;8.33;7.67;;;;;21.53;67.16;99755.31;5073991;28;45545;-79
2022/05/23 09:20:27;;;;;;;;;10.00;9.00;;;;;21.58;65.50;99768.38;5062064;28;45529;-79
2022/05/23 09:22:58;;;;;;;;;12.33;8.00;;;;;21.56;65.07;99760.41;5067668;28;45505;-79
2022/05/23 09:25:26;;;;;;;;;10.00;9.33;;;;;21.43;65.17;99741.03;5066210;27;46698;-79
2022/05/23 09:28:15;;;;;;;;;10.67;9.67;;;;;21.53;65.24;99755.31;5068536;27;45475;-79
2022/05/23 09:30:45;;;;;;;;;7.67;7.67;;;;;21.45;64.79;99745.28;5062828;27;45512;-79
2022/05/23 09:33:14;;;;;;;;;11.00;8.67;;;;;21.55;63.94;99747.03;5069623;27;45490;-79
2022/05/23 09:35:42;;;;;;;;;9.33;9.33;;;;;21.58;64.23;99752.09;5064900;28;47467;-79
2022/05/23 09:38:18;;;;;;;;;13.33;11.67;;;;;21.59;63.87;99746.53;5069691;28;45477;-79
2022/05/23 09:40:44;;;;;;;;;9.33;9.33;;;;;21.64;64.58;99754.19;5061660;28;45460;-79
2022/05/23 09:49:06;;;;;;;;;12.00;12.00;;;;;21.86;64.07;99740.00;5070104;28;45514;-79
2022/05/23 09:51:46;;;;;;;;;11.33;11.33;;;;;21.68;62.94;99691.31;5075276;28;45341;-79
2022/05/23 09:54:20;;;;;;;;;12.00;12.00;;;;;21.91;61.85;99715.09;5074207;28;45484;-79
2022/05/23 09:56:47;;;;;;;;;10.67;10.67;;;;;22.05;62.33;99717.16;5064233;28;45482;-79
2022/05/23 09:59:36;;;;;;;;;12.67;12.67;;;;;22.13;61.63;99719.06;5073288;27;45966;-79
2022/05/23 10:02:31;;;;;;;;;10.00;10.00;;;;;22.27;60.83;99742.03;5068432;27;45502;-79
2022/05/23 10:04:57;;;;;;;;;14.00;13.00;;;;;22.31;61.59;99743.38;5073600;28;45344;-79
2022/05/23 10:07:37;;;;;;;;;13.33;12.33;;;;;22.21;60.54;99720.97;5072329;27;45483;-79
2022/05/23 10:10:08;;;;;;;;;13.33;13.33;;;;;22.31;60.67;99730.66;5065871;28;45412;-79
2022/05/23 10:12:34;;;;;;;;;17.33;16.33;;;;;22.34;60.87;99733.03;5065404;28;45370;-79
2022/05/23 10:15:12;;;;;;;;;13.00;12.00;;;;;22.38;60.18;99728.09;5068091;28;45355;-79
2022/05/23 10:17:40;;;;;;;;;11.00;11.00;;;;;22.39;60.55;99726.25;5070564;28;46158;-79
2022/05/23 10:20:42;;;;;;;;;14.00;14.00;;;;;22.34;60.52;99726.75;5068312;27;45435;-79
2022/05/23 10:23:23;;;;;;;;;11.00;10.33;;;;;22.28;60.76;99727.41;5057591;28;45350;-79
2022/05/23 10:26:04;;;;;;;;;11.67;11.67;;;;;22.26;60.70;99734.88;5069148;28;45469;-79
2022/05/23 10:28:42;;;;;;;;;13.67;13.67;;;;;22.15;59.86;99736.03;5061897;28;45473;-79
2022/05/23 10:31:30;;;;;;;;;14.33;14.33;;;;;21.99;60.43;99717.00;5067254;27;45349;-79
2022/05/23 10:34:04;;;;;;;;;12.67;12.67;;;;;22.08;59.58;99735.84;5066657;27;45452;-79
2022/05/23 10:36:30;;;;;;;;;16.33;15.33;;;;;22.08;59.50;99741.28;5070342;28;45306;-79
2022/05/23 10:42:07;;;;;;;;;15.33;14.33;;;;;22.03;59.04;99718.34;5074015;28;45528;-81
2022/05/23 10:44:42;;;;;;;;;13.33;13.33;;;;;22.14;58.95;99732.44;5067850;28;45401;-81
2022/05/23 10:47:32;;;;;;;;;15.33;15.33;;;;;22.16;59.10;99726.88;5064254;28;45389;-81
2022/05/23 10:50:16;;;;;;;;;14.00;14.00;;;;;22.13;59.19;99736.19;5067893;28;46089;-81
2022/05/23 10:52:48;;;;;;;;;13.00;13.00;;;;;22.02;58.66;99724.81;5065005;28;45393;-81
2022/05/23 10:55:33;;;;;;;;;14.67;13.00;;;;;21.90;59.23;99727.81;5060313;28;45495;-81
2022/05/23 10:58:29;;;;;;;;;18.00;14.67;;;;;21.84;61.05;99728.47;5070062;28;45603;-81
2022/05/23 11:00:57;;;;;;;;;14.33;14.33;;;;;21.92;62.28;99731.22;5060468;28;45525;-81
2022/05/23 11:03:25;;;;;;;;;12.33;12.33;;;;;21.87;63.03;99741.72;5073321;27;45387;-81
2022/05/23 11:05:56;;;;;;;;;15.33;13.33;;;;;21.81;63.45;99734.22;5068840;28;45456;-81
2022/05/23 11:08:35;;;;;;;;;15.33;13.33;;;;;21.77;64.46;99734.72;5067636;28;45551;-81
2022/05/23 11:11:08;;;;;;;;;13.67;12.00;;;;;21.64;64.91;99718.94;5070571;28;45403;-82
2022/05/23 11:14:13;;;;;;;;;11.67;11.67;;;;;21.69;64.40;99746.41;5070535;28;45471;-81
2022/05/23 11:17:09;;;;;;;;;10.67;10.67;;;;;21.63;64.97;99747.03;5072455;28;45495;-81
2022/05/23 11:20:03;;;;;;;;;17.00;16.33;;;;;21.56;64.39;99752.25;5058815;28;45318;-81
2022/05/23 11:22:34;;;;;;;;;15.33;13.67;;;;;21.48;65.02;99749.53;5068960;28;45438;-81
2022/05/23 11:25:21;;;;;;;;;16.33;14.67;;;;;21.40;65.62;99754.88;5071795;28;45378;-81
2022/05/23 11:34:22;;;;;;;;;13.00;12.33;;;;;21.31;66.95;99753.97;5048334;27;45204;-81
2022/05/23 11:39:48;;;;;;;;;15.33;14.67;;;;;21.35;68.13;99752.63;5068230;28;45404;-80
2022/05/23 11:42:37;;;;;;;;;13.67;11.00;;;;;21.37;68.00;99757.91;5061387;28;45435;-82
2022/05/23 11:45:56;;;;;;;;;16.33;14.00;;;;;21.38;68.35;99756.91;5064920;28;47423;-82
2022/05/23 11:47:52;;;;;;;;;14.00;11.33;;;;;21.33;68.37;99765.53;5062619;28;45595;-80
2022/05/23 11:50:25;;;;;;;;;15.67;13.67;;;;;21.31;68.92;99762.13;5065569;27;45545;-80
2022/05/23 11:53:09;;;;;;;;;16.33;15.00;;;;;21.27;68.97;99764.28;5068983;28;45345;-80
2022/05/23 11:55:55;;;;;;;;;15.67;15.33;;;;;21.25;68.92;99770.88;5068683;28;45541;-80
2022/05/23 11:58:38;;;;;;;;;17.00;13.33;;;;;20.94;68.88;99733.44;5062852;28;45692;-80
2022/05/23 12:01:15;;;;;;;;;11.67;10.33;;;;;21.08;68.74;99768.06;5066526;28;45388;-79
2022/05/23 12:03:47;;;;;;;;;16.33;15.33;;;;;21.03;68.59;99775.81;5067784;28;45566;-79
2022/05/23 12:06:34;;;;;;;;;14.33;13.33;;;;;20.86;69.11;99774.84;5069408;28;45401;-79
2022/05/23 12:09:11;;;;;;;;;15.33;13.33;;;;;20.91;68.46;99784.34;5061467;28;45462;-79
2022/05/23 12:11:40;;;;;;;;;14.67;14.33;;;;;20.85;69.11;99788.53;5068246;28;45540;-78
2022/05/23 12:14:29;;;;;;;;;13.33;12.33;;;;;20.85;69.48;99789.38;5066766;28;45524;-79
2022/05/23 12:16:54;;;;;;;;;12.33;12.00;;;;;20.84;69.58;99785.00;5064245;28;46625;-79
2022/05/23 12:19:28;;;;;;;;;15.00;15.00;;;;;20.63;69.11;99755.53;5070250;28;45493;-79
2022/05/23 12:22:18;;;;;;;;;11.67;11.67;;;;;20.73;69.09;99784.38;5061246;28;45360;-79
2022/05/23 12:25:09;;;;;;;;;12.67;12.33;;;;;20.78;68.74;99792.88;5064767;28;45499;-81
2022/05/23 12:27:37;;;;;;;;;10.67;10.67;;;;;20.82;69.75;99797.00;5058458;28;45581;-79
2022/05/23 12:30:20;;;;;;;;;12.33;12.33;;;;;20.81;69.31;99796.16;5063562;28;45843;-79
2022/05/23 12:32:49;;;;;;;;;15.00;14.67;;;;;20.63;69.25;99785.31;5066478;28;45586;-79
2022/05/23 12:35:18;;;;;;;;;14.67;11.33;;;;;20.72;68.84;99810.63;5066885;27;45372;-78
2022/05/23 12:38:01;;;;;;;;;10.67;10.33;;;;;20.71;69.75;99802.66;5061445;27;46282;-79
2022/05/23 12:40:46;;;;;;;;;14.33;12.67;;;;;20.73;69.85;99817.72;5069097;28;45436;-79